Time;durP1;ratioP1;P1;durP2;ratioP2;P2;SDS_P1;SDS_P2;PMS_P1;PMS_P2;Temp;Humidity;BMP_temperature;BMP_pressure;BME280_temperature;BME280_humidity;BME280_pressure;Samples;Min_cycle;Max_cycle;Signal;HPM_P1;HPM_P2
2022/02/15 00:01:52;;;;;;;;;3.00;3.00;;;;;11.42;59.24;100721.59;5037488;28;45412;-73
2022/02/15 00:04:17;;;;;;;;;3.00;3.00;;;;;11.46;59.17;100731.28;5020460;28;47958;-73
2022/02/15 00:06:43;;;;;;;;;3.00;3.00;;;;;11.45;59.36;100736.69;5035619;28;45273;-74
2022/02/15 00:09:09;;;;;;;;;3.00;3.00;;;;;11.47;59.13;100737.50;5034352;28;45322;-73
2022/02/15 00:11:34;;;;;;;;;1.25;1.25;;;;;11.44;58.93;100724.22;5035259;28;45502;-73
2022/02/15 00:14:00;;;;;;;;;4.50;2.25;;;;;11.41;59.31;100729.69;5035671;28;45360;-73
2022/02/15 00:16:25;;;;;;;;;4.75;3.00;;;;;11.41;59.46;100735.03;5040758;28;45336;-73
2022/02/15 00:18:50;;;;;;;;;2.25;2.00;;;;;11.44;58.83;100730.47;5021924;28;45765;-73
2022/02/15 00:21:16;;;;;;;;;1.00;1.00;;;;;11.45;59.13;100732.19;5021757;28;45342;-73
2022/02/15 00:23:41;;;;;;;;;2.00;2.00;;;;;11.46;59.26;100738.41;5021693;28;45198;-73
2022/02/15 00:26:06;;;;;;;;;5.00;3.00;;;;;11.46;58.81;100741.06;5020653;28;45389;-73
2022/02/15 00:28:32;;;;;;;;;1.25;1.25;;;;;11.37;59.07;100731.59;5028846;28;45498;-73
2022/02/15 00:30:57;;;;;;;;;3.00;2.00;;;;;11.42;58.93;100734.97;5028216;28;45433;-73
2022/02/15 00:33:23;;;;;;;;;1.75;1.75;;;;;11.48;59.01;100741.91;5041556;28;46265;-72
2022/02/15 00:35:48;;;;;;;;;5.25;2.25;;;;;11.47;59.14;100740.16;5034290;28;45339;-72
2022/02/15 00:38:14;;;;;;;;;3.00;2.75;;;;;11.49;59.04;100755.22;5021920;28;45384;-73
2022/02/15 00:40:39;;;;;;;;;2.00;2.00;;;;;11.47;59.06;100754.38;5021714;28;45389;-72
2022/02/15 00:43:05;;;;;;;;;2.00;1.50;;;;;11.47;58.91;100757.06;5036502;28;45421;-72
2022/02/15 00:45:30;;;;;;;;;1.50;1.50;;;;;11.46;59.08;100755.34;5026541;28;45295;-73
2022/02/15 00:47:56;;;;;;;;;2.00;2.00;;;;;11.46;58.56;100760.69;5024414;28;45249;-73
2022/02/15 00:50:21;;;;;;;;;2.00;2.00;;;;;11.43;58.80;100760.78;5040613;28;45243;-73
2022/02/15 00:52:47;;;;;;;;;2.00;2.00;;;;;11.31;59.13;100732.69;5021470;28;46031;-73
2022/02/15 00:55:13;;;;;;;;;1.00;1.00;;;;;11.40;59.14;100750.19;5033615;28;45359;-74
2022/02/15 00:57:42;;;;;;;;;1.50;1.50;;;;;11.38;59.13;100756.53;5023451;28;45196;-73
2022/02/15 01:00:10;;;;;;;;;1.50;1.50;;;;;11.42;58.68;100769.72;5036121;28;45642;-73
2022/02/15 01:02:36;;;;;;;;;4.75;1.75;;;;;11.46;59.15;100779.41;5032905;28;45428;-74
2022/02/15 01:05:03;;;;;;;;;1.50;1.00;;;;;11.41;59.29;100769.78;5032057;28;45309;-73
2022/02/15 01:07:29;;;;;;;;;3.00;2.00;;;;;11.42;58.78;100777.75;5021099;28;45520;-73
2022/02/15 01:09:54;;;;;;;;;3.00;2.25;;;;;11.44;59.01;100781.25;5003289;28;45467;-73
2022/02/15 01:12:20;;;;;;;;;3.00;2.00;;;;;11.39;59.41;100772.50;5020363;28;45542;-73
2022/02/15 01:14:45;;;;;;;;;2.75;2.00;;;;;11.46;59.07;100795.44;5027776;28;45296;-73
2022/02/15 01:17:10;;;;;;;;;1.75;1.25;;;;;11.42;59.29;100783.09;5023084;28;45499;-73
2022/02/15 01:19:36;;;;;;;;;2.75;2.00;;;;;11.41;59.51;100786.72;5026864;28;45613;-73
2022/02/15 01:22:01;;;;;;;;;2.25;2.00;;;;;11.46;59.13;100797.22;5021032;28;46165;-73
2022/02/15 01:24:27;;;;;;;;;3.00;2.25;;;;;11.44;59.21;100805.31;5008249;28;45294;-73
2022/02/15 01:26:52;;;;;;;;;2.75;2.75;;;;;11.37;59.31;100792.19;5033871;28;46720;-74
2022/02/15 01:29:18;;;;;;;;;1.50;1.50;;;;;11.45;58.98;100806.19;5020965;28;46049;-73
2022/02/15 01:31:43;;;;;;;;;1.00;1.00;;;;;11.36;59.08;100795.78;5002996;28;47296;-73
2022/02/15 01:34:09;;;;;;;;;3.25;2.00;;;;;11.44;59.37;100809.75;5027702;28;45805;-73
2022/02/15 01:36:34;;;;;;;;;2.00;2.00;;;;;11.44;59.45;100818.69;5025734;28;45425;-73
2022/02/15 01:38:59;;;;;;;;;3.00;3.00;;;;;11.38;59.17;100802.84;5019434;28;45729;-73
2022/02/15 01:41:25;;;;;;;;;2.00;2.00;;;;;11.32;59.73;100801.22;5023691;28;47203;-73
2022/02/15 01:43:51;;;;;;;;;3.00;3.00;;;;;11.27;59.11;100799.66;5039773;28;45308;-73
2022/02/15 01:46:17;;;;;;;;;3.50;2.00;;;;;11.34;59.40;100811.00;5040819;28;45389;-73
2022/02/15 01:48:43;;;;;;;;;1.00;1.00;;;;;11.31;59.31;100818.22;5035303;28;45321;-74
2022/02/15 01:51:09;;;;;;;;;3.50;1.75;;;;;11.26;59.56;100812.16;5032602;28;47615;-73
2022/02/15 01:53:35;;;;;;;;;2.50;2.00;;;;;11.27;59.29;100810.34;5020678;28;45289;-73
2022/02/15 01:56:00;;;;;;;;;2.75;1.00;;;;;11.34;59.50;100821.69;5038021;28;45384;-73
2022/02/15 01:58:26;;;;;;;;;2.25;1.00;;;;;11.37;59.41;100838.50;5025926;28;45342;-73
2022/02/15 02:00:52;;;;;;;;;2.00;1.00;;;;;11.30;59.30;100842.31;5036554;28;46216;-73
2022/02/15 02:03:17;;;;;;;;;4.00;1.50;;;;;11.21;59.42;100823.91;5020499;28;46696;-73
2022/02/15 02:05:48;;;;;;;;;1.00;1.00;;;;;11.27;59.37;100837.94;5016781;28;45337;-73
2022/02/15 02:08:21;;;;;;;;;3.00;2.00;;;;;11.23;59.23;100830.09;5027770;28;45582;-73
2022/02/15 02:10:47;;;;;;;;;1.00;0.75;;;;;11.32;59.44;100845.81;5020093;28;46386;-73
2022/02/15 02:13:13;;;;;;;;;4.00;2.00;;;;;11.27;59.50;100837.94;5020159;28;45241;-73
2022/02/15 02:15:39;;;;;;;;;1.00;1.00;;;;;11.30;59.63;100850.34;5034234;28;45170;-74
2022/02/15 02:18:05;;;;;;;;;1.00;1.00;;;;;11.34;59.00;100857.31;5004310;28;45285;-73
2022/02/15 02:20:31;;;;;;;;;3.00;1.75;;;;;11.32;59.40;100862.69;5028235;28;46210;-73
2022/02/15 02:22:56;;;;;;;;;2.00;2.00;;;;;11.27;59.19;100851.28;5038575;28;45541;-73
2022/02/15 02:25:22;;;;;;;;;3.00;1.00;;;;;11.25;59.23;100858.50;5031735;28;45430;-73
2022/02/15 02:27:48;;;;;;;;;2.50;1.00;;;;;11.27;59.27;100867.31;5023614;28;45410;-73
2022/02/15 02:30:15;;;;;;;;;1.00;1.00;;;;;11.22;59.26;100863.06;5020271;28;45356;-73
2022/02/15 02:32:41;;;;;;;;;0.75;0.75;;;;;11.26;59.39;100870.94;5002927;28;46284;-74
2022/02/15 02:35:07;;;;;;;;;1.00;1.00;;;;;11.23;59.18;100863.03;5008802;28;45297;-73
2022/02/15 02:37:34;;;;;;;;;1.50;1.50;;;;;11.24;59.61;100862.13;5033185;28;45296;-73
2022/02/15 02:40:02;;;;;;;;;0.00;0.00;;;;;11.27;59.25;100870.00;5020062;28;46807;-73
2022/02/15 02:42:29;;;;;;;;;1.25;1.00;;;;;11.15;59.09;100850.84;5034900;28;45585;-73
2022/02/15 02:44:58;;;;;;;;;1.00;1.00;;;;;11.24;58.86;100866.56;5039774;28;45269;-73
2022/02/15 02:47:25;;;;;;;;;3.00;2.00;;;;;11.17;59.16;100854.34;5023550;28;45264;-73
2022/02/15 02:49:51;;;;;;;;;2.50;1.50;;;;;11.18;59.18;100867.66;5016671;28;47216;-73
2022/02/15 02:52:17;;;;;;;;;2.00;2.00;;;;;11.23;59.38;100875.53;5022399;28;45366;-73
2022/02/15 02:54:42;;;;;;;;;1.00;1.00;;;;;11.28;59.09;100884.25;5022111;28;45475;-73
2022/02/15 02:57:08;;;;;;;;;2.25;1.00;;;;;11.14;59.53;100865.97;5021165;28;45325;-73
2022/02/15 02:59:34;;;;;;;;;0.00;0.00;;;;;11.24;59.25;100895.97;5025244;28;45226;-73
2022/02/15 03:01:59;;;;;;;;;2.00;1.75;;;;;11.26;59.10;100899.44;5036467;28;45441;-73
2022/02/15 03:04:25;;;;;;;;;2.00;2.00;;;;;11.18;59.50;100883.69;5038697;28;45454;-73
2022/02/15 03:06:50;;;;;;;;;1.50;0.75;;;;;11.21;59.51;100896.06;5018753;28;46002;-73
2022/02/15 03:09:16;;;;;;;;;3.00;1.00;;;;;11.19;59.15;100889.88;5019681;28;46485;-72
2022/02/15 03:11:42;;;;;;;;;1.00;1.00;;;;;11.21;58.94;100902.28;5001748;28;45760;-73
2022/02/15 03:14:07;;;;;;;;;1.00;0.50;;;;;11.25;59.10;100916.41;5037433;28;45209;-73
2022/02/15 03:16:33;;;;;;;;;0.75;0.75;;;;;11.22;59.32;100919.19;5023803;28;45381;-73
2022/02/15 03:18:59;;;;;;;;;2.75;1.00;;;;;11.20;59.25;100916.56;5019644;28;45576;-73
2022/02/15 03:21:25;;;;;;;;;2.00;2.00;;;;;11.22;58.87;100927.19;5001638;28;45555;-73
2022/02/15 03:23:51;;;;;;;;;0.75;0.75;;;;;11.14;59.23;100914.06;5017336;28;45368;-72
2022/02/15 03:26:17;;;;;;;;;3.25;1.00;;;;;11.13;59.04;100913.22;5023179;28;45537;-73
2022/02/15 03:28:42;;;;;;;;;1.00;1.00;;;;;11.24;58.71;100936.03;5001485;28;48281;-73
2022/02/15 03:31:08;;;;;;;;;2.00;1.50;;;;;11.13;59.23;100926.56;5019128;28;45332;-73
2022/02/15 03:33:33;;;;;;;;;1.00;1.00;;;;;11.11;59.35;100927.56;5029525;28;45459;-73
2022/02/15 03:36:00;;;;;;;;;0.00;0.00;;;;;11.25;58.84;100957.38;5036094;28;45411;-73
2022/02/15 03:38:26;;;;;;;;;1.00;1.00;;;;;11.24;59.24;100962.75;5019208;28;45322;-73
2022/02/15 03:43:35;;;;;;;;;1.00;1.00;;;;;11.16;58.68;100955.00;5037765;28;45355;-73
2022/02/15 03:46:01;;;;;;;;;1.25;0.00;;;;;11.11;59.07;100957.81;5002399;28;45390;-74
2022/02/15 03:48:26;;;;;;;;;2.25;0.00;;;;;11.20;58.94;100979.81;5008069;28;47333;-73
2022/02/15 03:50:51;;;;;;;;;1.75;0.75;;;;;11.10;58.66;100955.19;5020905;28;45364;-73
2022/02/15 03:53:17;;;;;;;;;1.00;0.00;;;;;11.21;58.55;100984.22;5028461;28;45381;-73
2022/02/15 03:55:43;;;;;;;;;0.50;0.50;;;;;11.12;58.47;100974.72;5019010;28;45302;-73
2022/02/15 03:58:09;;;;;;;;;2.25;1.00;;;;;11.22;58.99;100996.69;5029968;28;45563;-73
2022/02/15 04:00:35;;;;;;;;;4.00;1.25;;;;;11.07;58.53;100976.66;5016129;28;45314;-74
2022/02/15 04:03:01;;;;;;;;;0.50;0.00;;;;;11.16;58.91;101002.19;5019262;28;45338;-73
2022/02/15 04:05:26;;;;;;;;;1.00;1.00;;;;;11.10;58.74;101004.13;5041147;28;45326;-73
2022/02/15 04:07:51;;;;;;;;;2.00;1.00;;;;;11.07;58.33;101004.22;5040025;28;45352;-73
2022/02/15 04:10:17;;;;;;;;;0.00;0.00;;;;;11.10;58.78;101014.81;5025233;28;45353;-73
2022/02/15 04:12:43;;;;;;;;;2.25;0.00;;;;;11.10;58.46;101019.31;5004187;28;45468;-73
2022/02/15 04:15:09;;;;;;;;;1.75;1.00;;;;;11.04;58.88;101020.38;5021774;28;45336;-73
2022/02/15 04:17:34;;;;;;;;;0.00;0.00;;;;;11.05;58.81;101021.25;5028256;28;46246;-73
2022/02/15 04:20:00;;;;;;;;;2.50;1.00;;;;;11.03;58.53;101029.31;5037865;28;45271;-74
2022/02/15 04:22:26;;;;;;;;;0.75;0.75;;;;;11.05;58.52;101038.13;5022121;28;45571;-73
2022/02/15 04:24:51;;;;;;;;;2.25;1.00;;;;;11.02;59.04;101040.03;5003942;28;45524;-73
2022/02/15 04:27:16;;;;;;;;;2.00;0.25;;;;;10.96;58.38;101032.19;5025601;28;46097;-73
2022/02/15 04:29:42;;;;;;;;;0.75;0.75;;;;;10.99;58.55;101037.44;5037510;28;45345;-73
2022/02/15 04:32:08;;;;;;;;;1.25;0.00;;;;;11.03;58.68;101057.81;5022122;28;45379;-72
2022/02/15 04:34:34;;;;;;;;;1.00;1.00;;;;;10.98;58.27;101052.59;5033918;28;45432;-73
2022/02/15 04:36:59;;;;;;;;;0.75;0.75;;;;;10.97;58.61;101061.53;5012909;28;46832;-73
2022/02/15 04:39:25;;;;;;;;;0.50;0.00;;;;;10.87;58.76;101054.69;5041512;28;45136;-72
2022/02/15 04:41:50;;;;;;;;;1.25;1.00;;;;;10.92;58.36;101076.81;5041818;28;45385;-73
2022/02/15 04:44:15;;;;;;;;;3.25;1.00;;;;;10.90;58.71;101065.31;5036900;28;45613;-73
2022/02/15 04:46:41;;;;;;;;;1.00;1.00;;;;;10.96;58.10;101078.50;5021978;28;46264;-73
2022/02/15 04:49:06;;;;;;;;;2.50;0.50;;;;;10.93;58.58;101078.56;5039567;28;45352;-73
2022/02/15 04:51:32;;;;;;;;;0.00;0.00;;;;;10.90;58.08;101071.50;5011866;28;45312;-73
2022/02/15 04:53:58;;;;;;;;;0.75;0.75;;;;;10.88;58.50;101076.03;5038926;28;45475;-73
2022/02/15 04:56:24;;;;;;;;;2.50;0.00;;;;;10.89;57.91;101076.88;5030013;28;46578;-73
2022/02/15 04:58:49;;;;;;;;;0.50;0.00;;;;;10.97;57.92;101092.72;5018528;28;45763;-73
2022/02/15 05:01:16;;;;;;;;;0.00;0.00;;;;;10.94;58.24;101099.00;5041572;28;45435;-73
2022/02/15 05:03:41;;;;;;;;;0.50;0.50;;;;;10.93;57.90;101105.28;5030581;28;45468;-73
2022/02/15 05:06:06;;;;;;;;;1.00;1.00;;;;;10.83;58.38;101080.63;5041181;28;45498;-73
2022/02/15 05:08:32;;;;;;;;;0.50;0.00;;;;;10.78;58.58;101076.34;5037587;28;45464;-73
2022/02/15 05:10:57;;;;;;;;;1.00;1.00;;;;;10.85;58.23;101097.47;5013309;28;45376;-73
2022/02/15 05:13:23;;;;;;;;;1.00;0.00;;;;;10.71;58.38;101071.16;5020832;28;45344;-73
2022/02/15 05:15:48;;;;;;;;;1.00;1.00;;;;;10.81;58.10;101092.25;5021120;28;45249;-73
2022/02/15 05:18:14;;;;;;;;;3.50;1.00;;;;;10.80;58.52;101096.72;5013168;28;45691;-73
2022/02/15 05:20:39;;;;;;;;;2.00;0.00;;;;;10.83;58.38;101110.00;5031563;28;45159;-73
2022/02/15 05:23:05;;;;;;;;;1.00;1.00;;;;;10.81;58.66;101109.16;5037326;28;45475;-73
2022/02/15 05:25:30;;;;;;;;;0.25;0.00;;;;;10.78;58.56;101111.91;5004435;28;46125;-73
2022/02/15 05:27:58;;;;;;;;;1.00;1.00;;;;;10.69;58.51;101094.38;5039623;28;45299;-74
2022/02/15 05:30:24;;;;;;;;;1.50;1.00;;;;;10.65;58.50;101083.81;5040954;28;45389;-73
2022/02/15 05:32:49;;;;;;;;;0.25;0.00;;;;;10.71;58.29;101097.88;5024178;28;45243;-73
2022/02/15 05:35:14;;;;;;;;;1.00;1.00;;;;;10.65;58.43;101097.16;5037525;28;46041;-73
2022/02/15 05:37:40;;;;;;;;;2.00;0.75;;;;;10.67;58.25;101098.84;5021292;28;45538;-73
2022/02/15 05:40:07;;;;;;;;;2.00;1.00;;;;;10.71;58.13;101121.88;5003353;28;45758;-73
2022/02/15 05:42:32;;;;;;;;;1.00;1.00;;;;;10.71;58.24;101113.88;5031211;28;45301;-73
2022/02/15 05:44:58;;;;;;;;;0.00;0.00;;;;;10.68;58.53;101113.97;5030394;28;45643;-73
2022/02/15 05:47:23;;;;;;;;;2.00;0.50;;;;;10.65;58.51;101115.84;5037123;28;45362;-73
2022/02/15 05:52:32;;;;;;;;;1.50;0.00;;;;;10.58;58.15;101109.78;5034371;28;45479;-73
2022/02/15 05:54:58;;;;;;;;;0.25;0.25;;;;;10.55;58.35;101101.84;5020675;28;46461;-73
2022/02/15 05:57:23;;;;;;;;;0.00;0.00;;;;;10.56;58.30;101104.50;5035816;28;45218;-73
2022/02/15 05:59:48;;;;;;;;;1.75;1.00;;;;;10.45;58.29;101101.22;5033688;28;45260;-73
2022/02/15 06:02:14;;;;;;;;;1.50;0.00;;;;;10.56;58.74;101124.97;5034083;28;45563;-73
2022/02/15 06:04:39;;;;;;;;;2.25;1.00;;;;;10.49;58.63;101108.25;5031355;28;46134;-73
2022/02/15 06:07:05;;;;;;;;;2.75;1.00;;;;;10.53;58.04;101112.56;5026318;28;45235;-73
2022/02/15 06:09:30;;;;;;;;;1.00;0.75;;;;;10.57;58.37;101119.59;5002936;28;45254;-73
2022/02/15 06:11:56;;;;;;;;;0.75;0.75;;;;;10.50;58.15;101115.31;5020275;28;45343;-73
2022/02/15 06:14:21;;;;;;;;;2.00;0.00;;;;;10.55;58.35;101131.22;5004566;28;48037;-73
2022/02/15 06:16:46;;;;;;;;;1.75;0.00;;;;;10.47;58.00;101114.53;5032661;28;45229;-72
2022/02/15 06:19:12;;;;;;;;;2.75;0.75;;;;;10.50;58.13;101125.13;5029656;28;45423;-73
2022/02/15 06:21:37;;;;;;;;;1.00;1.00;;;;;10.42;57.97;101122.63;5019933;28;45424;-73
2022/02/15 06:24:03;;;;;;;;;1.00;1.00;;;;;10.45;58.40;101141.25;5020258;28;46240;-73
2022/02/15 06:26:28;;;;;;;;;2.75;1.00;;;;;10.37;58.19;101133.47;5032804;28;45672;-73
2022/02/15 06:28:53;;;;;;;;;2.25;1.00;;;;;10.45;58.02;101157.25;5028982;28;45439;-73
2022/02/15 06:31:19;;;;;;;;;1.00;1.00;;;;;10.40;57.70;101153.84;5024700;28;45683;-74
2022/02/15 06:33:44;;;;;;;;;2.50;1.00;;;;;10.35;58.41;101145.94;5018449;28;48302;-73
2022/02/15 06:36:12;;;;;;;;;1.50;0.75;;;;;10.38;58.29;101148.53;5024666;28;45380;-73
2022/02/15 06:38:37;;;;;;;;;2.75;1.00;;;;;10.35;57.95;101159.28;5020038;28;45339;-73
2022/02/15 06:41:03;;;;;;;;;0.00;0.00;;;;;10.30;57.89;101153.16;5023309;28;45584;-73
2022/02/15 06:43:28;;;;;;;;;3.00;1.00;;;;;10.41;57.68;101170.72;5030827;28;47063;-74
2022/02/15 06:45:54;;;;;;;;;0.50;0.50;;;;;10.39;58.02;101168.13;5020776;28;45397;-73
2022/02/15 06:48:19;;;;;;;;;1.00;0.00;;;;;10.31;58.23;101162.91;5036323;28;45240;-73
2022/02/15 06:50:44;;;;;;;;;0.50;0.50;;;;;10.18;58.13;101140.13;5019497;28;45404;-73
2022/02/15 06:53:10;;;;;;;;;3.25;1.25;;;;;10.36;58.02;101184.19;5004569;28;45997;-73
2022/02/15 06:55:36;;;;;;;;;2.00;0.00;;;;;10.30;58.18;101184.31;5032180;28;45435;-73
2022/02/15 06:58:01;;;;;;;;;0.75;0.75;;;;;10.33;57.79;101198.47;5037763;28;45454;-73
2022/02/15 07:00:27;;;;;;;;;4.00;1.00;;;;;10.17;57.89;101165.94;5015049;28;45433;-73
2022/02/15 07:02:52;;;;;;;;;1.00;0.00;;;;;10.31;57.69;101199.41;5018591;28;47000;-73
2022/02/15 07:05:17;;;;;;;;;0.25;0.25;;;;;10.29;57.77;101193.22;5032457;28;45386;-73
2022/02/15 07:07:44;;;;;;;;;1.00;1.00;;;;;10.13;58.01;101164.22;5027070;28;45422;-69
2022/02/15 07:10:10;;;;;;;;;1.00;1.00;;;;;10.10;57.47;101171.44;5008342;28;45650;-68
2022/02/15 07:12:36;;;;;;;;;1.50;1.00;;;;;10.31;57.75;101204.75;5024330;28;47360;-69
2022/02/15 07:15:01;;;;;;;;;2.50;1.00;;;;;10.32;58.09;101206.50;5026630;28;45424;-69
2022/02/15 07:17:27;;;;;;;;;1.25;0.75;;;;;10.27;58.07;101198.56;5019820;28;45479;-69
2022/02/15 07:19:53;;;;;;;;;3.00;1.50;;;;;10.11;57.83;101175.88;5019406;28;45236;-69
2022/02/15 07:22:19;;;;;;;;;1.50;1.00;;;;;10.09;57.65;101180.34;5016708;28;46526;-69
2022/02/15 07:24:44;;;;;;;;;3.00;1.00;;;;;9.97;57.33;101161.06;5031735;28;45444;-69
2022/02/15 07:27:09;;;;;;;;;2.50;1.00;;;;;10.00;57.95;101179.63;5015080;28;45248;-69
2022/02/15 07:29:35;;;;;;;;;3.50;2.00;;;;;10.13;57.47;101201.59;5030633;28;45511;-70
2022/02/15 07:32:00;;;;;;;;;2.25;1.00;;;;;10.12;58.05;101209.63;5028505;28;46286;-70
2022/02/15 07:34:25;;;;;;;;;1.50;0.75;;;;;10.20;57.61;101213.00;5026110;28;45225;-70
2022/02/15 07:36:51;;;;;;;;;1.50;1.50;;;;;10.08;57.66;101202.63;5032634;28;45242;-71
2022/02/15 07:39:16;;;;;;;;;3.25;2.00;;;;;10.08;57.80;101203.47;5020431;28;45321;-70
2022/02/15 07:41:42;;;;;;;;;3.25;2.00;;;;;10.19;58.08;101221.94;5036574;28;45470;-70
2022/02/15 07:44:08;;;;;;;;;2.00;0.00;;;;;10.09;57.49;101205.25;5028910;28;45427;-70
2022/02/15 07:46:33;;;;;;;;;1.00;1.00;;;;;10.02;57.81;101199.19;5038741;28;45343;-73
2022/02/15 07:48:59;;;;;;;;;3.00;1.75;;;;;10.17;57.62;101224.63;5028859;28;45716;-71
2022/02/15 07:51:25;;;;;;;;;1.00;1.00;;;;;10.22;57.81;101236.97;5025525;28;45707;-73
2022/02/15 07:53:50;;;;;;;;;1.50;1.50;;;;;10.18;57.40;101230.84;5030786;28;45537;-73
2022/02/15 07:56:15;;;;;;;;;3.75;1.00;;;;;10.10;57.33;101211.44;5016212;28;45516;-74
2022/02/15 07:58:41;;;;;;;;;1.00;1.00;;;;;10.13;57.91;101214.91;5039103;28;45522;-74
2022/02/15 08:01:06;;;;;;;;;2.00;1.00;;;;;10.25;57.74;101234.22;5035407;28;45400;-73
2022/02/15 08:03:32;;;;;;;;;2.00;0.00;;;;;10.18;57.37;101226.34;5036644;28;45467;-73
2022/02/15 08:05:58;;;;;;;;;1.25;1.25;;;;;10.26;57.91;101247.53;5022886;28;45408;-73
2022/02/15 08:08:24;;;;;;;;;2.00;1.00;;;;;10.20;58.08;101242.34;5035667;28;45480;-73
2022/02/15 08:10:49;;;;;;;;;3.00;1.00;;;;;10.17;57.63;101235.28;5012172;28;46569;-73
2022/02/15 08:13:18;;;;;;;;;2.00;2.00;;;;;10.18;57.65;101245.03;5022688;28;45393;-73
2022/02/15 08:15:46;;;;;;;;;3.00;2.00;;;;;10.28;57.69;101267.06;5011247;28;45441;-73
2022/02/15 08:18:11;;;;;;;;;2.00;1.25;;;;;10.17;57.57;101251.31;5011361;28;45593;-73
2022/02/15 08:20:36;;;;;;;;;2.75;1.75;;;;;10.25;57.43;101264.44;5034342;28;45570;-73
2022/02/15 08:23:03;;;;;;;;;1.50;0.50;;;;;10.18;57.58;101257.50;5026820;28;45309;-72
2022/02/15 08:25:28;;;;;;;;;4.25;2.25;;;;;10.20;57.72;101266.34;5040051;28;45398;-73
2022/02/15 08:27:54;;;;;;;;;1.00;1.00;;;;;10.11;58.07;101254.09;5037259;28;45369;-73
2022/02/15 08:30:20;;;;;;;;;1.00;1.00;;;;;10.15;57.82;101255.78;5037652;28;46699;-73
2022/02/15 08:32:46;;;;;;;;;2.00;1.00;;;;;10.23;58.26;101279.63;5026679;28;45482;-74
2022/02/15 08:35:14;;;;;;;;;2.00;1.00;;;;;10.22;57.80;101280.53;5031938;28;45526;-73
2022/02/15 08:37:39;;;;;;;;;1.00;0.50;;;;;10.20;58.00;101280.56;5020395;28;45550;-73
2022/02/15 08:40:07;;;;;;;;;1.50;1.50;;;;;9.95;58.20;101250.00;5021070;28;46349;-73
2022/02/15 08:42:33;;;;;;;;;4.50;1.75;;;;;10.13;57.67;101278.06;5029172;28;45696;-73
2022/02/15 08:44:58;;;;;;;;;1.00;1.00;;;;;10.19;57.85;101300.16;5014341;28;45447;-74
2022/02/15 08:47:24;;;;;;;;;1.75;1.75;;;;;10.20;57.66;101288.56;5020412;28;45652;-73
2022/02/15 08:49:52;;;;;;;;;3.00;1.25;;;;;10.23;57.70;101292.97;5016874;28;47325;-74
2022/02/15 08:52:23;;;;;;;;;2.00;2.00;;;;;10.23;58.32;101298.31;5020904;28;45700;-73
2022/02/15 08:54:49;;;;;;;;;3.25;3.00;;;;;10.19;57.99;101288.63;5021051;28;45306;-73
2022/02/15 08:57:15;;;;;;;;;3.25;1.75;;;;;10.25;58.02;101293.81;5035361;28;45948;-73
2022/02/15 08:59:41;;;;;;;;;2.25;1.00;;;;;10.24;57.55;101293.84;5041502;28;46675;-73
2022/02/15 09:02:08;;;;;;;;;2.00;2.00;;;;;10.05;57.65;101259.56;5026525;28;45767;-73
2022/02/15 09:04:34;;;;;;;;;1.75;1.50;;;;;10.13;58.00;101275.41;5019322;28;45387;-69
2022/02/15 09:07:00;;;;;;;;;3.50;3.00;;;;;10.00;58.21;101250.78;5024172;28;45449;-69
2022/02/15 09:09:25;;;;;;;;;1.75;0.75;;;;;10.15;58.04;101253.09;5030118;28;45906;-73
2022/02/15 09:11:51;;;;;;;;;1.00;1.00;;;;;10.20;57.79;101255.69;5002316;28;45502;-73
2022/02/15 09:14:16;;;;;;;;;1.50;1.00;;;;;10.16;57.93;101241.53;5020383;28;45487;-73
2022/02/15 09:16:41;;;;;;;;;2.00;1.00;;;;;10.23;58.02;101241.41;5002057;28;45650;-73
2022/02/15 09:19:07;;;;;;;;;9.00;2.00;;;;;10.26;57.74;101244.88;5008292;28;47072;-73
2022/02/15 09:21:34;;;;;;;;;2.00;2.00;;;;;10.25;58.16;101240.44;5020569;28;45210;-73
2022/02/15 09:24:00;;;;;;;;;1.00;1.00;;;;;10.37;57.75;101258.00;5026866;28;45409;-73
2022/02/15 09:26:25;;;;;;;;;3.75;2.50;;;;;10.29;58.08;101254.59;5018576;28;45304;-72
2022/02/15 09:28:50;;;;;;;;;1.00;1.00;;;;;10.33;58.01;101259.00;5019145;28;45426;-73
2022/02/15 09:31:16;;;;;;;;;2.00;0.50;;;;;10.36;58.05;101251.78;5019648;28;45421;-73
2022/02/15 09:33:42;;;;;;;;;3.25;1.00;;;;;10.43;58.01;101276.53;5015517;28;45610;-73
2022/02/15 09:36:07;;;;;;;;;1.50;0.75;;;;;10.48;57.52;101281.78;5033274;28;45503;-73
2022/02/15 09:38:33;;;;;;;;;3.00;1.00;;;;;10.44;58.00;101272.97;5029901;28;46685;-73
2022/02/15 09:41:02;;;;;;;;;2.75;1.00;;;;;10.44;57.77;101274.72;5030666;28;45501;-73
2022/02/15 09:43:28;;;;;;;;;2.00;0.25;;;;;10.43;57.68;101265.84;5013400;28;45551;-73
2022/02/15 09:45:54;;;;;;;;;1.00;0.00;;;;;10.48;57.35;101261.28;5025290;28;46177;-72
2022/02/15 09:48:24;;;;;;;;;4.00;2.00;;;;;10.59;57.65;101281.50;5024760;28;48312;-73
2022/02/15 09:50:51;;;;;;;;;9.75;0.75;;;;;10.49;57.91;101257.72;5018852;28;45781;-73
2022/02/15 09:53:16;;;;;;;;;1.25;1.25;;;;;10.60;57.61;101273.47;5022422;28;45682;-73
2022/02/15 09:55:42;;;;;;;;;2.00;1.25;;;;;10.61;57.83;101261.88;5006140;28;46228;-73
2022/02/15 09:58:07;;;;;;;;;3.00;1.75;;;;;10.67;57.88;101269.72;5018935;28;45456;-73
2022/02/15 10:00:32;;;;;;;;;8.25;1.25;;;;;10.65;57.87;101268.03;5011432;28;45697;-73
2022/02/15 10:03:01;;;;;;;;;1.25;1.25;;;;;10.65;57.93;101260.88;5026710;28;45541;-73
2022/02/15 10:05:31;;;;;;;;;1.25;1.00;;;;;10.66;57.63;101259.97;5004584;28;45538;-73
2022/02/15 10:07:58;;;;;;;;;2.00;2.00;;;;;10.71;57.66;101265.22;5002379;28;46090;-74
2022/02/15 10:10:28;;;;;;;;;1.25;1.00;;;;;10.83;57.63;101285.38;5028192;28;45483;-69
2022/02/15 10:12:58;;;;;;;;;2.75;2.75;;;;;10.88;57.79;101286.16;5029494;28;45444;-71
2022/02/15 10:15:37;;;;;;;;;2.00;1.00;;;;;10.78;57.74;101274.81;5026279;28;45262;-74
2022/02/15 10:18:15;;;;;;;;;2.00;2.00;;;;;10.69;57.85;101249.22;5020507;28;47050;-70
2022/02/15 10:20:42;;;;;;;;;1.00;1.00;;;;;10.96;57.54;101280.59;5019051;28;45806;-73
2022/02/15 10:23:30;;;;;;;;;1.00;1.00;;;;;11.00;57.51;101295.66;5006277;28;45327;-74
2022/02/15 10:25:56;;;;;;;;;2.00;2.00;;;;;10.99;58.10;101283.19;5001242;28;45508;-73
2022/02/15 10:28:27;;;;;;;;;0.75;0.75;;;;;11.02;57.43;101285.78;5016944;28;47232;-73
2022/02/15 10:30:58;;;;;;;;;3.25;0.25;;;;;11.04;57.42;101292.88;5005809;28;45909;-73
2022/02/15 10:33:38;;;;;;;;;1.00;1.00;;;;;11.11;57.69;101307.81;5035187;28;45427;-74
2022/02/15 10:36:04;;;;;;;;;2.25;2.00;;;;;11.15;57.98;101315.75;5018574;28;45459;-74
2022/02/15 10:38:31;;;;;;;;;1.00;1.00;;;;;11.19;57.58;101306.72;5023760;28;45826;-74
2022/02/15 10:41:03;;;;;;;;;1.25;1.00;;;;;11.10;57.81;101287.34;5013287;28;45637;-74
2022/02/15 10:43:41;;;;;;;;;3.00;1.00;;;;;11.06;57.71;101268.75;5037948;28;45647;-73
2022/02/15 10:46:22;;;;;;;;;1.00;1.00;;;;;11.22;57.64;101285.28;5011163;28;45985;-73
2022/02/15 10:48:48;;;;;;;;;4.00;1.25;;;;;11.28;57.41;101287.78;5009698;28;47481;-74
2022/02/15 10:51:15;;;;;;;;;2.00;1.00;;;;;11.34;57.61;101276.91;5031114;28;46167;-73
2022/02/15 10:53:41;;;;;;;;;2.00;2.00;;;;;11.31;57.31;101261.00;5030854;28;45452;-74
2022/02/15 10:56:07;;;;;;;;;1.00;1.00;;;;;11.39;57.32;101260.75;5026689;28;45573;-73
2022/02/15 10:58:33;;;;;;;;;1.00;1.00;;;;;11.42;57.61;101261.56;5017763;28;45356;-73
2022/02/15 11:01:05;;;;;;;;;1.50;1.50;;;;;11.22;57.47;101216.66;5033841;28;45396;-74
2022/02/15 11:03:35;;;;;;;;;2.50;1.50;;;;;11.31;57.45;101220.91;5007344;28;45551;-74
2022/02/15 11:06:03;;;;;;;;;0.75;0.75;;;;;11.51;57.17;101260.44;5032123;28;45415;-74
2022/02/15 11:08:30;;;;;;;;;1.75;1.75;;;;;11.48;57.30;101252.50;5001521;28;47500;-74
2022/02/15 11:11:24;;;;;;;;;0.75;0.50;;;;;11.58;57.78;101254.00;5028321;28;45651;-74
2022/02/15 11:13:53;;;;;;;;;1.75;0.75;;;;;11.54;57.56;101244.28;5027678;28;45302;-74
2022/02/15 11:16:21;;;;;;;;;2.00;0.75;;;;;11.57;57.42;101230.84;5035020;28;45411;-74
2022/02/15 11:18:47;;;;;;;;;1.00;1.00;;;;;11.58;57.28;101226.38;5023323;28;45476;-73
2022/02/15 11:21:24;;;;;;;;;1.00;1.00;;;;;11.61;56.94;101221.81;5023467;28;45843;-73
2022/02/15 11:23:58;;;;;;;;;2.00;1.00;;;;;11.67;57.44;101236.81;5021308;28;45356;-73
2022/02/15 11:26:41;;;;;;;;;1.50;1.50;;;;;11.66;57.13;101224.34;5004488;28;45631;-73